Time;durP1;ratioP1;P1;durP2;ratioP2;P2;SDS_P1;SDS_P2;PMS_P1;PMS_P2;Temp;Humidity;BMP_temperature;BMP_pressure;BME280_temperature;BME280_humidity;BME280_pressure;Samples;Min_cycle;Max_cycle;Signal;HPM_P1;HPM_P2
2021/10/05 00:02:28;;;;;;;2.95;1.33;;;;;;;11.10;100.00;101110.41;5199593;28;20125;-69
2021/10/05 00:05:00;;;;;;;5.32;1.40;;;;;;;11.05;100.00;101100.28;5201768;28;20022;-68
2021/10/05 00:07:31;;;;;;;3.42;1.30;;;;;;;11.06;100.00;101099.34;5199579;28;20077;-67
2021/10/05 00:10:05;;;;;;;3.83;1.33;;;;;;;11.08;100.00;101094.81;5197259;28;20030;-68
2021/10/05 00:12:38;;;;;;;7.57;1.48;;;;;;;11.02;100.00;101102.34;5201393;28;20054;-69
2021/10/05 00:15:12;;;;;;;4.43;1.55;;;;;;;11.00;100.00;101099.03;5195862;28;20035;-67
2021/10/05 00:17:43;;;;;;;5.80;1.75;;;;;;;10.96;100.00;101101.06;5196549;28;20094;-68
2021/10/05 00:20:14;;;;;;;4.88;1.80;;;;;;;10.98;100.00;101103.53;5200062;28;20101;-68
2021/10/05 00:22:46;;;;;;;3.70;1.48;;;;;;;10.94;100.00;101092.47;5195238;28;20133;-67
2021/10/05 00:25:17;;;;;;;3.28;1.05;;;;;;;10.98;100.00;101095.69;5189194;28;20041;-67
2021/10/05 00:27:49;;;;;;;6.10;1.52;;;;;;;10.93;100.00;101096.91;5188659;28;20108;-67
2021/10/05 00:30:20;;;;;;;2.33;1.20;;;;;;;10.91;100.00;101085.72;5189465;28;20069;-67
2021/10/05 00:32:51;;;;;;;3.97;1.40;;;;;;;10.92;100.00;101084.75;5190033;28;20057;-67
2021/10/05 00:35:22;;;;;;;5.10;1.42;;;;;;;10.92;100.00;101073.44;5189213;28;20445;-67
2021/10/05 00:37:54;;;;;;;5.68;1.20;;;;;;;10.89;100.00;101071.91;5189907;28;20069;-68
2021/10/05 00:40:26;;;;;;;3.60;0.82;;;;;;;10.93;100.00;101067.22;5186532;28;20049;-67
2021/10/05 00:42:57;;;;;;;3.10;1.08;;;;;;;10.92;100.00;101069.03;5190238;28;20034;-67
2021/10/05 00:45:29;;;;;;;2.60;1.20;;;;;;;10.90;100.00;101057.00;5189292;28;20153;-67
2021/10/05 00:48:00;;;;;;;3.70;1.10;;;;;;;10.93;100.00;101054.94;5191360;28;20022;-67
2021/10/05 00:50:32;;;;;;;4.53;1.20;;;;;;;10.93;100.00;101049.72;5191231;28;20039;-67
2021/10/05 00:53:04;;;;;;;5.50;1.33;;;;;;;10.95;100.00;101050.44;5188509;28;20600;-68
2021/10/05 00:55:36;;;;;;;3.95;1.20;;;;;;;10.91;100.00;101051.66;5188016;28;20377;-67
2021/10/05 00:58:08;;;;;;;4.07;1.40;;;;;;;10.89;100.00;101045.69;5191449;28;20025;-67
2021/10/05 01:00:39;;;;;;;5.85;1.70;;;;;;;10.88;100.00;101037.97;5188463;28;20026;-67
2021/10/05 01:03:10;;;;;;;3.67;1.05;;;;;;;10.87;100.00;101033.66;5187436;28;20026;-67
2021/10/05 01:05:42;;;;;;;4.57;1.20;;;;;;;10.85;100.00;101030.34;5188792;28;20399;-68
2021/10/05 01:08:19;;;;;;;3.35;1.02;;;;;;;10.82;100.00;101020.94;5187838;28;20153;-67
2021/10/05 01:10:50;;;;;;;6.53;1.65;;;;;;;10.78;100.00;101024.78;5191109;28;20058;-67
2021/10/05 01:13:21;;;;;;;5.45;1.40;;;;;;;10.77;100.00;101010.00;5189170;28;20069;-67
2021/10/05 01:15:53;;;;;;;4.57;1.40;;;;;;;10.76;100.00;101010.13;5187984;28;20341;-67
2021/10/05 01:18:24;;;;;;;3.03;1.00;;;;;;;10.73;100.00;101016.47;5186445;28;20328;-67
2021/10/05 01:21:02;;;;;;;4.80;1.10;;;;;;;10.77;100.00;101009.19;5188518;28;20037;-67
2021/10/05 01:23:33;;;;;;;5.95;1.50;;;;;;;10.73;100.00;101011.22;5186900;28;20038;-67
2021/10/05 01:26:05;;;;;;;5.40;1.00;;;;;;;10.75;100.00;101005.84;5188204;28;20065;-67
2021/10/05 01:28:36;;;;;;;5.00;1.35;;;;;;;10.74;100.00;100994.53;5184619;28;20027;-67
2021/10/05 01:31:07;;;;;;;3.65;1.20;;;;;;;10.76;100.00;100992.63;5184378;28;20484;-67
2021/10/05 01:33:39;;;;;;;3.17;0.90;;;;;;;10.76;100.00;100990.00;5188950;28;20031;-67
2021/10/05 01:36:10;;;;;;;4.43;1.40;;;;;;;10.81;100.00;100987.00;5188284;28;20022;-67
2021/10/05 01:38:41;;;;;;;4.38;1.02;;;;;;;10.81;100.00;100985.22;5187733;28;20073;-67
2021/10/05 01:41:13;;;;;;;3.35;1.10;;;;;;;10.84;100.00;100984.97;5186901;28;20322;-67
2021/10/05 01:43:44;;;;;;;5.22;1.02;;;;;;;10.80;100.00;100983.56;5188678;28;20030;-67
2021/10/05 01:46:15;;;;;;;3.13;1.10;;;;;;;10.82;100.00;100984.25;5186921;28;20109;-68
2021/10/05 01:48:47;;;;;;;4.47;1.10;;;;;;;10.81;100.00;100987.84;5187571;28;20436;-68
2021/10/05 01:51:18;;;;;;;6.57;1.55;;;;;;;10.80;100.00;100977.50;5186199;28;20030;-67
2021/10/05 01:53:49;;;;;;;4.30;1.02;;;;;;;10.79;100.00;100981.88;5186407;28;20392;-68
2021/10/05 01:56:21;;;;;;;2.22;1.08;;;;;;;10.79;100.00;100974.00;5187460;28;20080;-67
2021/10/05 01:58:52;;;;;;;4.47;1.00;;;;;;;10.77;100.00;100960.22;5182802;28;20039;-67
2021/10/05 02:01:23;;;;;;;2.97;1.13;;;;;;;10.81;100.00;100952.94;5184476;28;20151;-67
2021/10/05 02:03:55;;;;;;;4.30;1.10;;;;;;;10.78;100.00;100953.19;5187738;28;20468;-67
2021/10/05 02:06:26;;;;;;;3.80;0.90;;;;;;;10.77;100.00;100943.66;5182701;28;20393;-67
2021/10/05 02:08:58;;;;;;;2.05;0.90;;;;;;;10.75;100.00;100949.03;5184532;28;20054;-67
2021/10/05 02:11:29;;;;;;;3.00;0.90;;;;;;;10.78;100.00;100943.53;5187480;28;20045;-67
2021/10/05 02:14:02;;;;;;;4.20;1.30;;;;;;;10.75;100.00;100941.16;5187144;28;20051;-67
2021/10/05 02:16:34;;;;;;;;;;;;;;;11.00;100.00;100926.81;5188493;28;20038;-67
2021/10/05 02:19:06;;;;;;;2.67;0.88;;;;;;;10.75;100.00;100928.06;5188721;28;19916;-67
2021/10/05 02:21:37;;;;;;;4.93;1.25;;;;;;;10.76;100.00;100921.88;5186180;28;20392;-67
2021/10/05 02:26:56;;;;;;;4.00;1.35;;;;;;;10.75;100.00;100917.56;5188245;28;20704;-67
2021/10/05 02:29:28;;;;;;;5.07;1.13;;;;;;;10.73;100.00;100901.16;5186304;28;20038;-67
2021/10/05 02:31:59;;;;;;;4.90;1.10;;;;;;;10.72;100.00;100904.75;5189600;28;20038;-67
2021/10/05 02:34:30;;;;;;;4.72;1.23;;;;;;;10.70;100.00;100901.41;5188308;28;20251;-67
2021/10/05 02:37:03;;;;;;;3.45;0.80;;;;;;;10.70;100.00;100891.78;5185287;28;20030;-67
2021/10/05 02:39:35;;;;;;;2.25;1.00;;;;;;;10.74;100.00;100892.34;5187554;28;20070;-68
2021/10/05 02:42:07;;;;;;;3.83;1.35;;;;;;;10.77;100.00;100886.03;5186475;28;20492;-67
2021/10/05 02:44:40;;;;;;;4.65;1.38;;;;;;;10.74;100.00;100874.00;5187099;28;20532;-67
2021/10/05 02:47:11;;;;;;;3.25;1.20;;;;;;;10.74;100.00;100870.56;5184705;28;20116;-67
2021/10/05 02:49:45;;;;;;;5.28;1.08;;;;;;;10.79;100.00;100873.59;5185324;28;20540;-67
2021/10/05 02:52:19;;;;;;;4.53;0.93;;;;;;;10.77;100.00;100868.50;5186909;28;20519;-67
2021/10/05 02:54:51;;;;;;;4.97;1.17;;;;;;;10.68;100.00;100864.03;5186321;28;20030;-67
2021/10/05 02:57:22;;;;;;;3.33;0.95;;;;;;;10.76;100.00;100866.84;5186246;28;20034;-67
2021/10/05 02:59:53;;;;;;;3.33;0.93;;;;;;;10.77;100.00;100867.69;5186757;28;20026;-67
2021/10/05 03:02:25;;;;;;;2.88;0.90;;;;;;;10.77;100.00;100863.25;5184001;28;20036;-68
2021/10/05 03:04:56;;;;;;;2.47;1.17;;;;;;;10.75;100.00;100853.84;5183444;28;20026;-67
2021/10/05 03:07:28;;;;;;;2.00;0.90;;;;;;;10.76;100.00;100856.38;5188784;28;20512;-67
2021/10/05 03:09:59;;;;;;;2.30;0.80;;;;;;;10.77;100.00;100844.91;5185791;28;20073;-67
2021/10/05 03:12:30;;;;;;;3.35;1.00;;;;;;;10.78;100.00;100845.75;5189424;28;20058;-67
2021/10/05 03:15:02;;;;;;;2.67;0.98;;;;;;;10.76;100.00;100829.31;5188700;28;20486;-67
2021/10/05 03:17:33;;;;;;;2.97;0.90;;;;;;;10.81;100.00;100835.00;5187043;28;20030;-67
2021/10/05 03:20:05;;;;;;;3.90;0.93;;;;;;;10.80;100.00;100831.56;5182588;28;20117;-67
2021/10/05 03:22:37;;;;;;;4.13;0.77;;;;;;;10.77;100.00;100826.56;5187118;28;20081;-67
2021/10/05 03:25:08;;;;;;;3.03;1.10;;;;;;;10.77;100.00;100816.09;5186052;28;20035;-67
2021/10/05 03:27:40;;;;;;;3.50;0.98;;;;;;;10.78;100.00;100820.38;5186716;28;20125;-67
2021/10/05 03:30:12;;;;;;;1.95;0.88;;;;;;;10.79;100.00;100813.31;5185439;28;20400;-67
2021/10/05 03:32:43;;;;;;;3.47;0.98;;;;;;;10.79;100.00;100808.91;5186332;28;20045;-67
2021/10/05 03:35:16;;;;;;;2.88;0.90;;;;;;;10.80;100.00;100809.75;5185206;28;20030;-67
2021/10/05 03:37:48;;;;;;;3.33;1.33;;;;;;;10.76;100.00;100796.09;5184898;28;20030;-67
2021/10/05 03:40:19;;;;;;;3.67;1.15;;;;;;;10.77;100.00;100800.38;5186816;28;20061;-67
2021/10/05 03:42:50;;;;;;;2.92;0.85;;;;;;;10.76;100.00;100792.63;5181231;28;20539;-67
2021/10/05 03:45:22;;;;;;;3.47;0.82;;;;;;;10.76;100.00;100792.63;5183223;28;20114;-67
2021/10/05 03:47:53;;;;;;;2.95;1.08;;;;;;;10.76;100.00;100787.38;5181925;28;20031;-67
2021/10/05 03:50:25;;;;;;;4.30;0.80;;;;;;;10.74;100.00;100782.28;5185029;28;20023;-67
2021/10/05 03:52:56;;;;;;;4.90;1.13;;;;;;;10.75;100.00;100778.69;5185449;28;20535;-67
2021/10/05 03:55:27;;;;;;;2.78;0.90;;;;;;;10.77;100.00;100774.16;5182096;28;20030;-67
2021/10/05 03:57:59;;;;;;;3.17;1.02;;;;;;;10.77;100.00;100770.72;5187897;28;20021;-67
2021/10/05 04:00:30;;;;;;;4.45;1.00;;;;;;;10.81;100.00;100770.31;5185491;28;20034;-67
2021/10/05 04:03:01;;;;;;;3.50;0.90;;;;;;;10.83;100.00;100765.75;5184757;28;20034;-67
2021/10/05 04:05:33;;;;;;;4.20;1.52;;;;;;;10.82;100.00;100766.72;5182663;28;20033;-67
2021/10/05 04:08:04;;;;;;;3.78;0.80;;;;;;;10.85;100.00;100755.97;5183541;28;20053;-67
2021/10/05 04:10:37;;;;;;;4.50;1.00;;;;;;;10.80;100.00;100754.72;5181948;28;20507;-67
2021/10/05 04:13:08;;;;;;;3.60;1.20;;;;;;;10.82;100.00;100747.56;5184221;28;20034;-67
2021/10/05 04:15:39;;;;;;;5.82;0.90;;;;;;;10.80;100.00;100741.63;5187963;28;20027;-67
2021/10/05 04:18:11;;;;;;;2.10;1.00;;;;;;;10.82;100.00;100740.50;5187441;28;20105;-67
2021/10/05 04:20:42;;;;;;;4.10;0.98;;;;;;;10.79;100.00;100735.53;5188287;28;20077;-67
2021/10/05 04:23:13;;;;;;;5.78;1.00;;;;;;;10.81;100.00;100738.03;5187884;28;20030;-67
2021/10/05 04:25:45;;;;;;;6.03;0.95;;;;;;;10.80;100.00;100731.97;5187114;28;20026;-67
2021/10/05 04:28:16;;;;;;;2.03;0.90;;;;;;;10.81;100.00;100727.56;5187902;28;20042;-67
2021/10/05 04:30:47;;;;;;;3.13;0.90;;;;;;;10.85;100.00;100724.53;5186564;28;20043;-67
2021/10/05 04:33:19;;;;;;;2.50;0.80;;;;;;;10.81;100.00;100724.94;5191505;28;20025;-67
2021/10/05 04:35:50;;;;;;;4.30;1.13;;;;;;;10.80;100.00;100713.63;5189418;28;20081;-67
2021/10/05 04:38:22;;;;;;;3.70;0.80;;;;;;;10.83;100.00;100715.13;5188416;28;20030;-67
2021/10/05 04:40:53;;;;;;;1.95;0.80;;;;;;;10.83;100.00;100713.34;5186788;28;20055;-67
2021/10/05 04:43:24;;;;;;;2.28;0.95;;;;;;;10.81;100.00;100699.56;5187311;28;20030;-67
2021/10/05 04:45:56;;;;;;;4.20;1.00;;;;;;;10.85;100.00;100700.94;5188583;28;20500;-67
2021/10/05 04:48:27;;;;;;;3.13;1.05;;;;;;;10.86;100.00;100694.72;5187902;28;20065;-67
2021/10/05 04:50:58;;;;;;;2.70;0.82;;;;;;;10.86;100.00;100694.72;5192654;28;20023;-67
2021/10/05 04:53:29;;;;;;;3.03;0.90;;;;;;;10.85;100.00;100687.84;5189535;28;20066;-67
2021/10/05 04:56:01;;;;;;;4.55;1.05;;;;;;;10.86;100.00;100688.66;5190933;28;20298;-67
2021/10/05 04:58:32;;;;;;;2.55;0.77;;;;;;;10.86;100.00;100686.88;5188186;28;20029;-67
2021/10/05 05:01:04;;;;;;;3.60;0.95;;;;;;;10.89;100.00;100686.59;5190250;28;20026;-68
2021/10/05 05:03:35;;;;;;;4.78;1.35;;;;;;;10.86;100.00;100686.88;5189956;28;20075;-67
2021/10/05 05:06:06;;;;;;;3.17;0.80;;;;;;;10.90;100.00;100682.19;5185836;28;20100;-67
2021/10/05 05:08:38;;;;;;;3.28;0.73;;;;;;;10.89;100.00;100677.91;5186331;28;20066;-67
2021/10/05 05:11:09;;;;;;;5.82;1.10;;;;;;;10.89;100.00;100670.06;5188206;28;20144;-67
2021/10/05 05:13:40;;;;;;;4.07;0.88;;;;;;;10.90;100.00;100671.69;5190017;28;20115;-67
2021/10/05 05:16:12;;;;;;;3.58;0.85;;;;;;;10.95;100.00;100664.28;5188117;28;20054;-67
2021/10/05 05:18:43;;;;;;;3.20;1.33;;;;;;;11.00;100.00;100663.84;5186949;28;20029;-67
2021/10/05 05:21:14;;;;;;;4.38;0.80;;;;;;;11.05;100.00;100659.84;5189636;28;20476;-67
2021/10/05 05:23:45;;;;;;;3.78;1.05;;;;;;;11.05;100.00;100653.78;5186203;28;20527;-67
2021/10/05 05:26:17;;;;;;;4.53;1.08;;;;;;;11.08;100.00;100643.84;5187670;28;20026;-67
2021/10/05 05:28:48;;;;;;;3.33;1.30;;;;;;;11.10;100.00;100649.78;5188755;28;20366;-67
2021/10/05 05:31:20;;;;;;;4.07;1.20;;;;;;;11.13;100.00;100643.41;5188059;28;20026;-67
2021/10/05 05:33:51;;;;;;;3.15;0.93;;;;;;;11.11;100.00;100637.50;5188503;28;20503;-67
2021/10/05 05:36:23;;;;;;;2.25;1.00;;;;;;;11.10;100.00;100638.44;5187222;28;20026;-67
2021/10/05 05:38:54;;;;;;;3.75;0.98;;;;;;;11.11;100.00;100627.84;5183432;28;20600;-67
2021/10/05 05:41:25;;;;;;;2.35;0.80;;;;;;;11.09;100.00;100624.50;5184454;28;20018;-67
2021/10/05 05:43:56;;;;;;;2.38;1.10;;;;;;;11.07;100.00;100623.03;5185622;28;20029;-67
2021/10/05 05:46:28;;;;;;;4.72;1.27;;;;;;;11.07;100.00;100615.97;5186463;28;20037;-67
2021/10/05 05:48:59;;;;;;;5.28;1.23;;;;;;;11.07;100.00;100626.47;5188230;28;20119;-68
2021/10/05 05:51:31;;;;;;;3.08;1.05;;;;;;;11.07;100.00;100617.78;5183851;28;20050;-67
2021/10/05 05:54:03;;;;;;;6.03;1.17;;;;;;;11.04;100.00;100616.25;5188872;28;20074;-67
2021/10/05 05:56:35;;;;;;;3.05;1.00;;;;;;;11.05;100.00;100609.22;5186371;28;20073;-69
2021/10/05 05:59:07;;;;;;;4.45;1.00;;;;;;;11.05;100.00;100615.28;5184695;28;20065;-67
2021/10/05 06:01:39;;;;;;;3.50;1.30;;;;;;;11.01;100.00;100621.75;5186416;28;20443;-67
2021/10/05 06:04:10;;;;;;;3.25;1.23;;;;;;;11.03;100.00;100624.25;5184786;28;20045;-67
2021/10/05 06:06:41;;;;;;;3.05;1.08;;;;;;;11.04;100.00;100620.66;5180923;28;20061;-68
2021/10/05 06:09:12;;;;;;;3.75;0.95;;;;;;;11.04;100.00;100618.03;5186535;28;20602;-68
2021/10/05 06:11:44;;;;;;;3.72;1.30;;;;;;;11.01;100.00;100605.22;5176417;28;20469;-70
2021/10/05 06:14:15;;;;;;;3.00;1.20;;;;;;;11.04;100.00;100607.56;5177913;28;20046;-70
2021/10/05 06:16:46;;;;;;;4.85;1.20;;;;;;;11.01;100.00;100610.44;5185687;28;20441;-67
2021/10/05 06:19:18;;;;;;;3.50;1.25;;;;;;;11.02;100.00;100617.34;5186836;28;20026;-68
2021/10/05 06:21:49;;;;;;;4.10;1.38;;;;;;;11.00;100.00;100600.94;5187423;28;20026;-68
2021/10/05 06:24:20;;;;;;;3.95;1.13;;;;;;;11.01;100.00;100607.84;5181411;28;20359;-70
2021/10/05 06:26:52;;;;;;;3.33;1.05;;;;;;;11.01;100.00;100594.72;5186696;28;20032;-68
2021/10/05 06:29:23;;;;;;;2.75;1.05;;;;;;;11.03;100.00;100590.19;5188272;28;20117;-68
2021/10/05 06:31:54;;;;;;;2.97;0.93;;;;;;;11.03;100.00;100584.94;5187227;28;20137;-69
2021/10/05 06:34:26;;;;;;;3.15;1.20;;;;;;;11.03;100.00;100585.75;5186125;28;20076;-68
2021/10/05 06:36:57;;;;;;;5.40;1.27;;;;;;;10.98;100.00;100584.50;5187618;28;20030;-70
2021/10/05 06:39:29;;;;;;;4.03;1.42;;;;;;;11.06;100.00;100579.41;5183806;28;20026;-68
2021/10/05 06:42:00;;;;;;;4.55;1.13;;;;;;;11.14;100.00;100582.16;5177388;28;20769;-68
2021/10/05 06:44:31;;;;;;;3.45;1.20;;;;;;;11.14;100.00;100583.00;5178965;28;20054;-70
2021/10/05 06:47:03;;;;;;;6.13;1.55;;;;;;;11.13;100.00;100583.94;5183712;28;20029;-69
2021/10/05 06:49:34;;;;;;;3.67;1.55;;;;;;;11.15;100.00;100579.41;5189473;28;20069;-69
2021/10/05 06:52:06;;;;;;;8.40;2.00;;;;;;;11.19;100.00;100582.56;5183497;28;20441;-68
2021/10/05 06:54:37;;;;;;;6.47;1.40;;;;;;;11.22;100.00;100576.22;5185529;28;20544;-69
2021/10/05 06:57:09;;;;;;;4.85;1.20;;;;;;;11.24;100.00;100582.13;5182491;28;20026;-69
2021/10/05 06:59:40;;;;;;;2.45;1.15;;;;;;;11.30;100.00;100581.59;5184985;28;20026;-68
2021/10/05 07:02:11;;;;;;;4.70;1.33;;;;;;;11.30;100.00;100573.72;5185193;28;20042;-69
2021/10/05 07:04:43;;;;;;;3.47;1.20;;;;;;;11.29;100.00;100566.78;5183137;28;20396;-69
2021/10/05 07:07:14;;;;;;;2.70;1.38;;;;;;;11.36;100.00;100562.66;5182661;28;20034;-69
2021/10/05 07:09:46;;;;;;;4.35;1.30;;;;;;;11.37;100.00;100559.91;5184658;28;20351;-71
2021/10/05 07:12:17;;;;;;;5.22;1.58;;;;;;;11.42;100.00;100564.72;5186437;28;20069;-69
2021/10/05 07:14:48;;;;;;;3.45;1.20;;;;;;;11.48;100.00;100560.69;5181293;28;20118;-69
2021/10/05 07:17:19;;;;;;;3.15;1.08;;;;;;;11.49;100.00;100559.72;5181365;28;20037;-70
2021/10/05 07:19:51;;;;;;;3.97;1.33;;;;;;;11.55;100.00;100559.97;5185442;28;20030;-69
2021/10/05 07:22:23;;;;;;;4.60;1.65;;;;;;;11.59;100.00;100547.38;5187523;28;20049;-69
2021/10/05 07:24:54;;;;;;;6.85;1.38;;;;;;;11.62;100.00;100545.31;5183465;28;20268;-69
2021/10/05 07:27:25;;;;;;;5.53;1.35;;;;;;;11.69;100.00;100540.31;5183841;28;20027;-69
2021/10/05 07:29:57;;;;;;;4.35;1.48;;;;;;;11.76;100.00;100524.81;5182873;28;20486;-70
2021/10/05 07:32:28;;;;;;;4.00;1.25;;;;;;;11.83;100.00;100526.75;5184098;28;20037;-69
2021/10/05 07:35:00;;;;;;;3.20;1.10;;;;;;;11.86;100.00;100517.75;5179518;28;20030;-69
2021/10/05 07:37:32;;;;;;;5.22;1.40;;;;;;;11.96;100.00;100517.69;5182410;28;20081;-70
2021/10/05 07:40:03;;;;;;;4.10;1.40;;;;;;;11.98;100.00;100515.75;5182854;28;20030;-69
2021/10/05 07:42:35;;;;;;;4.40;1.50;;;;;;;12.04;100.00;100518.59;5180626;28;20036;-69
2021/10/05 07:45:07;;;;;;;4.18;1.25;;;;;;;12.12;100.00;100512.59;5183303;28;20069;-69
2021/10/05 07:47:38;;;;;;;7.95;1.33;;;;;;;12.19;100.00;100505.78;5181977;28;20468;-69
2021/10/05 07:50:10;;;;;;;4.97;1.33;;;;;;;12.26;100.00;100506.84;5184759;28;20027;-69
2021/10/05 07:52:41;;;;;;;4.55;1.38;;;;;;;12.31;100.00;100499.38;5182991;28;20033;-70
2021/10/05 07:55:13;;;;;;;4.13;1.30;;;;;;;12.32;100.00;100492.31;5186103;28;20038;-69
2021/10/05 07:57:44;;;;;;;3.97;1.25;;;;;;;12.48;100.00;100487.19;5183458;28;20443;-71
2021/10/05 08:00:15;;;;;;;4.00;1.10;;;;;;;12.50;100.00;100484.41;5187284;28;20027;-69
2021/10/05 08:02:47;;;;;;;5.75;1.38;;;;;;;12.49;100.00;100464.38;5191093;28;20435;-69
2021/10/05 08:05:19;;;;;;;5.82;1.35;;;;;;;12.71;100.00;100477.03;5189525;28;20022;-69
2021/10/05 08:08:07;;;;;;;5.82;1.20;;;;;;;12.75;100.00;100467.03;5187497;28;20086;-69
2021/10/05 08:10:39;;;;;;;2.95;1.20;;;;;;;12.82;100.00;100468.91;5192497;28;20046;-69
2021/10/05 08:13:11;;;;;;;6.00;1.00;;;;;;;12.88;100.00;100460.41;5189831;28;20049;-70
2021/10/05 08:15:42;;;;;;;4.35;1.13;;;;;;;12.85;100.00;100459.88;5187689;28;20030;-69
2021/10/05 08:18:13;;;;;;;5.65;1.27;;;;;;;13.00;100.00;100463.59;5188687;28;20034;-69
2021/10/05 08:20:46;;;;;;;4.60;1.20;;;;;;;13.07;100.00;100445.41;5187091;28;20109;-69
2021/10/05 08:23:18;;;;;;;2.80;1.00;;;;;;;13.14;100.00;100452.50;5179730;28;20519;-70
2021/10/05 08:25:49;;;;;;;5.22;1.08;;;;;;;13.19;100.00;100430.16;5176481;28;20035;-69
2021/10/05 08:28:20;;;;;;;2.63;1.23;;;;;;;13.35;100.00;100431.09;5176361;28;20031;-69
2021/10/05 08:30:53;;;;;;;3.22;1.20;;;;;;;13.41;100.00;100423.53;5186920;28;20058;-69
2021/10/05 08:33:24;;;;;;;6.47;1.67;;;;;;;13.52;100.00;100417.97;5189747;28;20508;-69
2021/10/05 08:35:55;;;;;;;4.63;1.13;;;;;;;13.59;100.00;100419.81;5177539;28;20037;-71
2021/10/05 08:38:27;;;;;;;5.55;1.23;;;;;;;13.74;100.00;100412.13;5175232;28;20074;-69
2021/10/05 08:41:01;;;;;;;3.80;1.10;;;;;;;13.79;100.00;100414.28;5174492;28;20019;-70
2021/10/05 08:43:33;;;;;;;6.38;1.38;;;;;;;13.91;100.00;100401.63;5188236;28;20436;-69
2021/10/05 08:46:05;;;;;;;4.85;1.73;;;;;;;14.07;100.00;100393.75;5189510;28;20076;-70
2021/10/05 08:48:37;;;;;;;3.80;1.00;;;;;;;14.14;100.00;100389.47;5190530;28;20038;-69
2021/10/05 08:51:09;;;;;;;4.38;1.00;;;;;;;14.27;100.00;100386.34;5189070;28;20033;-70
2021/10/05 08:53:40;;;;;;;5.43;1.33;;;;;;;14.47;100.00;100386.81;5177316;28;20030;-69
2021/10/05 08:56:11;;;;;;;4.05;1.13;;;;;;;14.54;100.00;100379.91;5181328;28;20062;-69
2021/10/05 08:58:43;;;;;;;4.45;1.42;;;;;;;14.61;100.00;100388.81;5186418;28;20135;-70
2021/10/05 09:01:16;;;;;;;3.10;1.10;;;;;;;14.73;100.00;100378.72;5189177;28;20026;-69
2021/10/05 09:03:50;;;;;;;7.00;1.35;;;;;;;14.81;100.00;100376.06;5183174;28;20027;-69
2021/10/05 09:06:23;;;;;;;7.72;1.25;;;;;;;14.90;100.00;100363.69;5185293;28;20601;-69
2021/10/05 09:08:56;;;;;;;3.90;1.42;;;;;;;14.97;100.00;100372.56;5176770;28;20094;-69
2021/10/05 09:11:40;;;;;;;5.23;1.30;;;;;;;15.18;100.00;100362.25;5174016;28;20032;-69
2021/10/05 09:14:11;;;;;;;5.13;1.20;;;;;;;15.26;100.00;100366.66;5173815;28;20297;-69
2021/10/05 09:16:43;;;;;;;3.75;1.27;;;;;;;15.36;100.00;100363.84;5175217;28;20600;-69
2021/10/05 09:19:18;;;;;;;5.03;1.25;;;;;;;15.43;100.00;100360.31;5176190;28;20061;-69
2021/10/05 09:21:53;;;;;;;3.30;1.20;;;;;;;15.49;100.00;100354.34;5181885;28;20018;-69
2021/10/05 09:24:32;;;;;;;5.72;1.30;;;;;;;15.62;100.00;100352.97;5189121;28;20100;-72
2021/10/05 09:27:04;;;;;;;6.00;1.15;;;;;;;15.57;100.00;100346.38;5185418;28;20026;-71
2021/10/05 09:29:38;;;;;;;4.18;1.30;;;;;;;15.64;100.00;100329.81;5189104;28;20044;-69
2021/10/05 09:32:15;;;;;;;4.70;0.90;;;;;;;15.78;100.00;100340.47;5190786;28;20523;-69
2021/10/05 09:34:55;;;;;;;3.05;1.23;;;;;;;15.78;100.00;100326.47;5186989;28;20026;-71
2021/10/05 09:37:29;;;;;;;6.82;1.48;;;;;;;15.86;100.00;100317.66;5187974;28;20037;-71
2021/10/05 09:40:07;;;;;;;6.80;1.48;;;;;;;15.97;100.00;100309.31;5187466;28;20113;-69
2021/10/05 09:42:44;;;;;;;3.47;1.15;;;;;;;16.12;100.00;100306.69;5189858;28;20038;-70
2021/10/05 09:45:29;;;;;;;4.70;1.17;;;;;;;16.19;100.00;100297.06;5187687;28;20038;-69
2021/10/05 09:48:07;;;;;;;5.45;1.30;;;;;;;16.26;100.00;100296.16;5186519;28;20490;-69
2021/10/05 09:50:40;;;;;;;5.05;1.30;;;;;;;16.37;100.00;100302.00;5183545;28;20030;-69
2021/10/05 09:53:13;;;;;;;3.33;1.13;;;;;;;16.39;100.00;100298.16;5186788;28;20516;-70
2021/10/05 09:55:46;;;;;;;5.30;1.35;;;;;;;16.43;100.00;100293.34;5188415;28;20408;-71
2021/10/05 09:58:17;;;;;;;5.05;1.15;;;;;;;16.58;100.00;100288.88;5187130;28;20049;-69
2021/10/05 10:00:50;;;;;;;4.80;1.10;;;;;;;16.68;100.00;100296.53;5190903;28;20026;-69
2021/10/05 10:03:21;;;;;;;;;;;;;;;16.91;100.00;100297.28;5188268;28;20045;-73
2021/10/05 10:05:53;;;;;;;3.67;1.13;;;;;;;16.90;100.00;100293.00;5187606;28;19917;-70
2021/10/05 10:08:25;;;;;;;2.67;0.98;;;;;;;16.96;100.00;100294.06;5183946;28;20129;-69
2021/10/05 10:10:57;;;;;;;4.03;1.27;;;;;;;16.95;100.00;100305.66;5188931;28;20034;-68
2021/10/05 10:13:29;;;;;;;5.15;1.05;;;;;;;17.05;100.00;100298.25;5190141;28;20022;-69
2021/10/05 10:16:01;;;;;;;4.32;1.15;;;;;;;17.21;100.00;100299.88;5189511;28;20092;-71
2021/10/05 10:18:33;;;;;;;6.43;1.10;;;;;;;17.17;100.00;100280.88;5189333;28;20018;-69
2021/10/05 10:21:11;;;;;;;6.88;1.52;;;;;;;17.38;100.00;100295.16;5189398;28;20014;-69
2021/10/05 10:23:42;;;;;;;4.85;1.58;;;;;;;17.35;100.00;100296.38;5188719;28;20038;-69
2021/10/05 10:26:18;;;;;;;3.25;1.20;;;;;;;17.40;100.00;100298.44;5190635;28;20381;-69
2021/10/05 10:28:58;;;;;;;5.95;1.17;;;;;;;17.34;100.00;100307.94;5188022;28;20018;-69
2021/10/05 10:31:33;;;;;;;4.47;1.08;;;;;;;17.31;100.00;100300.38;5189532;28;20034;-70
2021/10/05 10:34:05;;;;;;;2.72;0.80;;;;;;;17.34;100.00;100293.88;5185461;28;20026;-70
2021/10/05 10:36:41;;;;;;;5.00;1.10;;;;;;;17.50;100.00;100293.63;5190700;28;20496;-70
2021/10/05 10:39:17;;;;;;;3.15;0.90;;;;;;;17.31;100.00;100288.97;5186715;28;20392;-70
2021/10/05 10:41:51;;;;;;;2.38;0.70;;;;;;;17.29;100.00;100293.63;5187694;28;20019;-70
2021/10/05 10:44:28;;;;;;;5.05;1.10;;;;;;;17.22;100.00;100294.38;5185312;28;20035;-69
2021/10/05 10:47:11;;;;;;;6.10;0.93;;;;;;;17.18;100.00;100293.09;5187997;28;20022;-69
2021/10/05 10:49:59;;;;;;;3.92;1.10;;;;;;;17.18;100.00;100285.16;5187088;28;20034;-69
2021/10/05 10:52:34;;;;;;;5.03;1.10;;;;;;;17.16;100.00;100283.69;5201600;28;20081;-70
2021/10/05 10:55:07;;;;;;;6.03;1.20;;;;;;;17.16;100.00;100283.69;5186432;28;20022;-70
2021/10/05 10:57:53;;;;;;;3.75;1.05;;;;;;;17.15;100.00;100277.59;5189026;28;20455;-72
2021/10/05 11:00:29;;;;;;;4.15;0.90;;;;;;;17.12;100.00;100278.00;5187080;28;20018;-71
2021/10/05 11:03:03;;;;;;;4.25;0.90;;;;;;;17.10;100.00;100277.34;5188011;28;20030;-69
2021/10/05 11:05:36;;;;;;;2.42;0.85;;;;;;;17.08;100.00;100278.53;5186387;28;20037;-68
2021/10/05 11:08:11;;;;;;;;;;;;;;;17.26;100.00;100247.97;5188099;28;20034;-70
2021/10/05 11:10:42;;;;;;;3.65;0.80;;;;;;;16.98;100.00;100268.25;5188318;28;20372;-73
2021/10/05 11:13:14;;;;;;;3.15;0.88;;;;;;;17.01;100.00;100260.75;5187260;28;20037;-71
2021/10/05 11:15:49;;;;;;;3.85;0.82;;;;;;;17.07;100.00;100247.78;5186221;28;20014;-71
2021/10/05 11:18:24;;;;;;;3.20;1.00;;;;;;;17.06;100.00;100236.38;5186104;28;20038;-71
2021/10/05 11:20:59;;;;;;;3.58;0.80;;;;;;;16.96;100.00;100235.84;5188081;28;20037;-71
2021/10/05 11:23:42;;;;;;;2.20;0.73;;;;;;;16.96;100.00;100241.13;5190193;28;20027;-72
2021/10/05 11:26:13;;;;;;;2.37;1.07;;;;;;;16.85;100.00;100236.31;5185641;28;20038;-69
2021/10/05 11:28:46;;;;;;;4.78;0.90;;;;;;;16.81;100.00;100235.88;5186166;28;20659;-69
2021/10/05 11:31:18;;;;;;;5.68;0.77;;;;;;;16.70;100.00;100223.91;5189844;28;20361;-72
2021/10/05 11:33:50;;;;;;;6.50;1.40;;;;;;;16.71;100.00;100238.81;5189171;28;20053;-70
2021/10/05 11:36:25;;;;;;;3.85;0.88;;;;;;;16.66;100.00;100235.88;5188288;28;20108;-69
2021/10/05 11:38:56;;;;;;;4.32;1.10;;;;;;;16.67;100.00;100231.44;5191328;28;20027;-69
2021/10/05 11:41:39;;;;;;;4.38;1.00;;;;;;;16.64;100.00;100231.78;5191671;28;20023;-71
2021/10/05 11:44:18;;;;;;;3.55;0.90;;;;;;;16.59;100.00;100228.84;5191728;28;20030;-69